sensor_id;sensor_type;location;lat;lon;timestamp;pressure;altitude;pressure_sealevel;temperature;humidity
11077;BME280;5591;42.626;23.380;2023-05-21T00:01:00;94056.09;;;16.59;100.00
11077;BME280;5591;42.626;23.380;2023-05-21T00:03:27;94035.06;;;16.23;100.00
11077;BME280;5591;42.626;23.380;2023-05-21T00:05:55;94026.38;;;16.04;100.00
11077;BME280;5591;42.626;23.380;2023-05-21T00:08:22;94039.63;;;16.16;100.00
11077;BME280;5591;42.626;23.380;2023-05-21T00:10:49;94044.03;;;16.22;100.00
11077;BME280;5591;42.626;23.380;2023-05-21T00:13:18;94050.09;;;16.11;100.00
11077;BME280;5591;42.626;23.380;2023-05-21T00:15:45;94044.44;;;16.07;100.00
11077;BME280;5591;42.626;23.380;2023-05-21T00:18:11;94083.53;;;15.94;100.00
11077;BME280;5591;42.626;23.380;2023-05-21T00:20:38;94042.97;;;15.82;100.00
11077;BME280;5591;42.626;23.380;2023-05-21T00:23:06;94038.59;;;15.76;100.00
11077;BME280;5591;42.626;23.380;2023-05-21T00:25:32;94032.06;;;15.60;100.00
11077;BME280;5591;42.626;23.380;2023-05-21T00:27:59;94036.38;;;15.73;100.00
11077;BME280;5591;42.626;23.380;2023-05-21T00:30:27;94029.72;;;15.70;100.00
11077;BME280;5591;42.626;23.380;2023-05-21T00:32:54;94034.41;;;15.68;100.00
11077;BME280;5591;42.626;23.380;2023-05-21T00:35:23;94011.41;;;15.69;100.00
11077;BME280;5591;42.626;23.380;2023-05-21T00:37:49;94025.38;;;15.76;100.00
11077;BME280;5591;42.626;23.380;2023-05-21T00:40:18;94023.50;;;15.76;100.00
11077;BME280;5591;42.626;23.380;2023-05-21T00:42:45;94025.78;;;15.73;100.00
11077;BME280;5591;42.626;23.380;2023-05-21T00:45:13;94021.06;;;15.75;100.00
11077;BME280;5591;42.626;23.380;2023-05-21T00:47:42;94022.50;;;15.59;100.00
11077;BME280;5591;42.626;23.380;2023-05-21T00:50:10;93921.59;;;14.97;100.00
11077;BME280;5591;42.626;23.380;2023-05-21T00:52:39;94026.19;;;15.58;100.00
11077;BME280;5591;42.626;23.380;2023-05-21T00:55:08;94022.19;;;15.67;100.00
11077;BME280;5591;42.626;23.380;2023-05-21T00:57:35;94022.38;;;15.84;100.00
11077;BME280;5591;42.626;23.380;2023-05-21T01:00:04;94027.38;;;15.92;100.00
11077;BME280;5591;42.626;23.380;2023-05-21T01:02:34;94022.13;;;16.03;100.00
11077;BME280;5591;42.626;23.380;2023-05-21T01:05:03;94011.63;;;16.08;100.00
11077;BME280;5591;42.626;23.380;2023-05-21T01:07:31;94016.41;;;16.29;100.00
11077;BME280;5591;42.626;23.380;2023-05-21T01:10:00;94015.25;;;16.25;100.00
11077;BME280;5591;42.626;23.380;2023-05-21T01:12:28;94018.25;;;16.29;100.00
11077;BME280;5591;42.626;23.380;2023-05-21T01:14:56;94004.19;;;16.28;100.00
11077;BME280;5591;42.626;23.380;2023-05-21T01:17:25;94006.28;;;16.26;100.00
11077;BME280;5591;42.626;23.380;2023-05-21T01:19:52;94006.91;;;16.40;100.00
11077;BME280;5591;42.626;23.380;2023-05-21T01:22:21;94010.03;;;16.48;100.00
11077;BME280;5591;42.626;23.380;2023-05-21T01:24:52;94013.94;;;16.57;100.00
11077;BME280;5591;42.626;23.380;2023-05-21T01:27:20;93998.03;;;16.46;100.00
11077;BME280;5591;42.626;23.380;2023-05-21T01:29:47;94010.00;;;16.60;100.00
11077;BME280;5591;42.626;23.380;2023-05-21T01:32:20;94006.00;;;16.57;100.00
11077;BME280;5591;42.626;23.380;2023-05-21T01:34:55;94008.78;;;16.51;100.00
11077;BME280;5591;42.626;23.380;2023-05-21T01:37:29;94030.41;;;16.59;100.00
11077;BME280;5591;42.626;23.380;2023-05-21T01:40:01;93996.31;;;16.63;100.00
11077;BME280;5591;42.626;23.380;2023-05-21T01:42:30;93943.88;;;16.19;100.00
11077;BME280;5591;42.626;23.380;2023-05-21T01:44:58;94004.84;;;16.65;100.00
11077;BME280;5591;42.626;23.380;2023-05-21T01:47:28;94007.50;;;16.65;100.00
11077;BME280;5591;42.626;23.380;2023-05-21T01:49:56;94005.75;;;16.59;100.00
11077;BME280;5591;42.626;23.380;2023-05-21T01:52:22;94037.09;;;16.50;100.00
11077;BME280;5591;42.626;23.380;2023-05-21T01:54:49;94005.81;;;16.29;100.00
11077;BME280;5591;42.626;23.380;2023-05-21T01:57:20;94004.00;;;16.41;100.00
11077;BME280;5591;42.626;23.380;2023-05-21T01:59:47;93997.78;;;16.36;100.00
11077;BME280;5591;42.626;23.380;2023-05-21T02:02:13;93992.34;;;16.31;100.00
11077;BME280;5591;42.626;23.380;2023-05-21T02:04:40;93991.19;;;16.27;100.00
11077;BME280;5591;42.626;23.380;2023-05-21T02:07:08;93990.97;;;16.28;100.00
11077;BME280;5591;42.626;23.380;2023-05-21T02:09:35;93989.31;;;16.16;100.00
11077;BME280;5591;42.626;23.380;2023-05-21T02:12:02;93986.16;;;15.96;100.00
11077;BME280;5591;42.626;23.380;2023-05-21T02:14:31;93988.81;;;15.96;100.00
11077;BME280;5591;42.626;23.380;2023-05-21T02:16:58;93983.97;;;15.93;100.00
11077;BME280;5591;42.626;23.380;2023-05-21T02:19:26;93975.16;;;15.40;100.00
11077;BME280;5591;42.626;23.380;2023-05-21T02:21:53;93981.72;;;15.67;100.00
11077;BME280;5591;42.626;23.380;2023-05-21T02:24:20;93985.31;;;15.72;100.00
11077;BME280;5591;42.626;23.380;2023-05-21T02:26:49;93986.56;;;15.70;100.00
11077;BME280;5591;42.626;23.380;2023-05-21T02:29:16;93978.41;;;15.24;100.00
11077;BME280;5591;42.626;23.380;2023-05-21T02:31:44;93972.50;;;15.40;100.00
11077;BME280;5591;42.626;23.380;2023-05-21T02:34:11;93967.88;;;15.53;100.00
11077;BME280;5591;42.626;23.380;2023-05-21T02:36:38;93944.16;;;15.47;100.00
11077;BME280;5591;42.626;23.380;2023-05-21T02:39:05;93962.22;;;15.50;100.00
11077;BME280;5591;42.626;23.380;2023-05-21T02:41:32;93976.75;;;15.59;100.00
11077;BME280;5591;42.626;23.380;2023-05-21T02:43:59;93973.78;;;15.67;100.00
11077;BME280;5591;42.626;23.380;2023-05-21T02:46:26;93975.75;;;15.71;100.00
11077;BME280;5591;42.626;23.380;2023-05-21T02:48:54;93969.84;;;15.69;100.00
11077;BME280;5591;42.626;23.380;2023-05-21T02:51:20;93972.66;;;15.74;100.00
11077;BME280;5591;42.626;23.380;2023-05-21T02:53:47;93969.03;;;15.87;100.00
11077;BME280;5591;42.626;23.380;2023-05-21T02:56:14;93972.94;;;15.96;100.00
11077;BME280;5591;42.626;23.380;2023-05-21T02:58:41;93968.81;;;16.00;100.00
11077;BME280;5591;42.626;23.380;2023-05-21T03:01:07;93968.56;;;15.90;100.00
11077;BME280;5591;42.626;23.380;2023-05-21T03:03:34;93971.53;;;15.82;100.00
11077;BME280;5591;42.626;23.380;2023-05-21T03:06:02;93969.34;;;15.90;100.00
11077;BME280;5591;42.626;23.380;2023-05-21T03:08:29;93975.41;;;15.79;100.00
11077;BME280;5591;42.626;23.380;2023-05-21T03:10:56;93975.56;;;15.96;100.00
11077;BME280;5591;42.626;23.380;2023-05-21T03:13:23;93973.38;;;15.93;100.00
11077;BME280;5591;42.626;23.380;2023-05-21T03:15:50;93960.88;;;16.00;100.00
11077;BME280;5591;42.626;23.380;2023-05-21T03:18:20;93967.19;;;16.10;100.00
11077;BME280;5591;42.626;23.380;2023-05-21T03:20:47;93974.59;;;16.20;100.00
11077;BME280;5591;42.626;23.380;2023-05-21T03:23:15;93963.97;;;16.08;100.00
11077;BME280;5591;42.626;23.380;2023-05-21T03:25:42;93979.81;;;16.38;100.00
11077;BME280;5591;42.626;23.380;2023-05-21T03:28:10;93980.63;;;16.50;100.00
11077;BME280;5591;42.626;23.380;2023-05-21T03:30:37;93988.09;;;16.30;100.00
11077;BME280;5591;42.626;23.380;2023-05-21T03:33:03;93989.13;;;16.29;100.00
11077;BME280;5591;42.626;23.380;2023-05-21T03:35:30;93987.09;;;16.42;100.00
11077;BME280;5591;42.626;23.380;2023-05-21T03:37:57;93986.38;;;16.35;100.00
11077;BME280;5591;42.626;23.380;2023-05-21T03:40:25;93981.28;;;16.34;100.00
11077;BME280;5591;42.626;23.380;2023-05-21T03:42:52;93989.34;;;16.27;100.00
11077;BME280;5591;42.626;23.380;2023-05-21T03:45:19;93995.53;;;16.51;100.00
11077;BME280;5591;42.626;23.380;2023-05-21T03:47:45;93987.44;;;16.46;100.00
11077;BME280;5591;42.626;23.380;2023-05-21T03:50:13;93989.28;;;16.68;100.00
11077;BME280;5591;42.626;23.380;2023-05-21T03:52:41;93992.75;;;16.80;100.00
11077;BME280;5591;42.626;23.380;2023-05-21T03:55:08;93979.72;;;16.90;100.00
11077;BME280;5591;42.626;23.380;2023-05-21T03:57:36;93973.03;;;16.76;100.00
11077;BME280;5591;42.626;23.380;2023-05-21T04:00:04;93998.03;;;16.92;100.00
11077;BME280;5591;42.626;23.380;2023-05-21T04:02:33;93980.03;;;17.05;100.00
11077;BME280;5591;42.626;23.380;2023-05-21T04:05:00;93985.47;;;16.99;100.00
11077;BME280;5591;42.626;23.380;2023-05-21T04:07:27;93986.53;;;16.75;100.00
11077;BME280;5591;42.626;23.380;2023-05-21T04:09:54;93986.59;;;17.14;100.00
11077;BME280;5591;42.626;23.380;2023-05-21T04:12:21;93984.69;;;17.49;100.00
11077;BME280;5591;42.626;23.380;2023-05-21T04:14:49;93984.66;;;17.61;100.00
11077;BME280;5591;42.626;23.380;2023-05-21T04:17:15;93994.19;;;17.73;100.00
11077;BME280;5591;42.626;23.380;2023-05-21T04:19:43;93925.69;;;17.59;100.00
11077;BME280;5591;42.626;23.380;2023-05-21T04:22:10;93988.47;;;18.09;100.00
11077;BME280;5591;42.626;23.380;2023-05-21T04:24:37;93990.41;;;18.13;100.00
11077;BME280;5591;42.626;23.380;2023-05-21T04:27:04;93970.75;;;17.98;100.00
11077;BME280;5591;42.626;23.380;2023-05-21T04:29:31;93983.34;;;18.19;100.00
11077;BME280;5591;42.626;23.380;2023-05-21T04:31:59;93991.69;;;18.11;100.00
11077;BME280;5591;42.626;23.380;2023-05-21T04:34:26;93998.94;;;18.43;100.00
11077;BME280;5591;42.626;23.380;2023-05-21T04:36:54;93985.22;;;18.51;100.00
11077;BME280;5591;42.626;23.380;2023-05-21T04:39:21;93984.59;;;18.61;100.00
11077;BME280;5591;42.626;23.380;2023-05-21T04:41:47;93994.97;;;18.62;100.00
11077;BME280;5591;42.626;23.380;2023-05-21T04:44:15;93993.81;;;18.75;100.00
11077;BME280;5591;42.626;23.380;2023-05-21T04:46:41;93985.50;;;18.88;100.00
11077;BME280;5591;42.626;23.380;2023-05-21T04:49:11;93999.09;;;19.08;100.00
11077;BME280;5591;42.626;23.380;2023-05-21T04:51:38;93989.38;;;19.35;100.00
11077;BME280;5591;42.626;23.380;2023-05-21T04:54:05;94003.31;;;19.42;100.00
11077;BME280;5591;42.626;23.380;2023-05-21T04:56:32;93996.38;;;19.41;100.00
11077;BME280;5591;42.626;23.380;2023-05-21T04:58:59;93999.91;;;19.46;97.05
11077;BME280;5591;42.626;23.380;2023-05-21T05:01:26;93999.56;;;19.59;94.86
11077;BME280;5591;42.626;23.380;2023-05-21T05:03:53;93998.78;;;19.85;94.47
11077;BME280;5591;42.626;23.380;2023-05-21T05:06:21;93990.03;;;19.90;95.56
11077;BME280;5591;42.626;23.380;2023-05-21T05:08:50;93995.53;;;20.05;94.53
11077;BME280;5591;42.626;23.380;2023-05-21T05:11:17;93954.56;;;20.11;91.50
11077;BME280;5591;42.626;23.380;2023-05-21T05:13:43;93987.69;;;20.46;89.82
11077;BME280;5591;42.626;23.380;2023-05-21T05:16:10;93978.97;;;20.55;91.13
11077;BME280;5591;42.626;23.380;2023-05-21T05:18:38;93987.00;;;20.97;88.81
11077;BME280;5591;42.626;23.380;2023-05-21T05:21:05;93975.56;;;20.65;87.30
11077;BME280;5591;42.626;23.380;2023-05-21T05:23:33;93994.78;;;20.98;83.51
11077;BME280;5591;42.626;23.380;2023-05-21T05:26:00;93997.66;;;21.33;81.22
11077;BME280;5591;42.626;23.380;2023-05-21T05:28:27;93995.03;;;21.43;80.57
11077;BME280;5591;42.626;23.380;2023-05-21T05:30:53;93993.13;;;21.39;79.31
11077;BME280;5591;42.626;23.380;2023-05-21T05:33:20;93992.69;;;21.57;76.97
11077;BME280;5591;42.626;23.380;2023-05-21T05:35:47;93994.41;;;21.78;73.57
11077;BME280;5591;42.626;23.380;2023-05-21T05:38:14;93992.59;;;21.98;71.95
11077;BME280;5591;42.626;23.380;2023-05-21T05:40:42;93989.72;;;22.20;71.66
11077;BME280;5591;42.626;23.380;2023-05-21T05:43:09;93955.75;;;22.15;71.10
11077;BME280;5591;42.626;23.380;2023-05-21T05:45:36;93996.16;;;22.29;72.50
11077;BME280;5591;42.626;23.380;2023-05-21T05:48:03;93987.91;;;22.40;70.82
11077;BME280;5591;42.626;23.380;2023-05-21T05:50:30;93987.31;;;22.13;69.66
11077;BME280;5591;42.626;23.380;2023-05-21T05:52:56;93985.25;;;22.45;68.60
11077;BME280;5591;42.626;23.380;2023-05-21T05:55:23;93990.88;;;22.69;69.02
11077;BME280;5591;42.626;23.380;2023-05-21T05:57:52;93993.81;;;22.67;69.56
11077;BME280;5591;42.626;23.380;2023-05-21T06:00:19;93976.72;;;22.63;69.72
11077;BME280;5591;42.626;23.380;2023-05-21T06:02:45;93979.88;;;22.90;66.04
11077;BME280;5591;42.626;23.380;2023-05-21T06:05:13;93982.28;;;22.87;66.43
11077;BME280;5591;42.626;23.380;2023-05-21T06:07:41;94006.66;;;22.80;67.06
11077;BME280;5591;42.626;23.380;2023-05-21T06:10:08;93975.34;;;23.01;65.17
11077;BME280;5591;42.626;23.380;2023-05-21T06:12:35;93976.88;;;23.46;64.03
11077;BME280;5591;42.626;23.380;2023-05-21T06:15:04;93942.06;;;23.36;64.40
11077;BME280;5591;42.626;23.380;2023-05-21T06:17:31;93979.63;;;22.92;67.33
11077;BME280;5591;42.626;23.380;2023-05-21T06:19:58;93974.03;;;22.73;65.33
11077;BME280;5591;42.626;23.380;2023-05-21T06:22:24;93975.84;;;22.38;70.29
11077;BME280;5591;42.626;23.380;2023-05-21T06:24:51;93979.53;;;22.12;70.96
11077;BME280;5591;42.626;23.380;2023-05-21T06:27:18;93962.88;;;21.80;73.67
11077;BME280;5591;42.626;23.380;2023-05-21T06:29:45;93927.84;;;21.66;72.92
11077;BME280;5591;42.626;23.380;2023-05-21T06:32:13;93969.34;;;21.84;73.80
11077;BME280;5591;42.626;23.380;2023-05-21T06:34:40;93963.72;;;21.95;74.25
11077;BME280;5591;42.626;23.380;2023-05-21T06:37:06;93975.22;;;21.91;76.47
11077;BME280;5591;42.626;23.380;2023-05-21T06:39:33;93922.84;;;22.00;74.41
11077;BME280;5591;42.626;23.380;2023-05-21T06:42:00;93954.69;;;22.11;74.52
11077;BME280;5591;42.626;23.380;2023-05-21T06:44:27;93957.13;;;22.28;74.79
11077;BME280;5591;42.626;23.380;2023-05-21T06:46:53;93964.63;;;22.36;73.83
11077;BME280;5591;42.626;23.380;2023-05-21T06:49:22;93968.13;;;22.46;75.09
11077;BME280;5591;42.626;23.380;2023-05-21T06:51:48;93964.63;;;22.56;75.61
11077;BME280;5591;42.626;23.380;2023-05-21T06:54:15;93963.56;;;22.37;77.23
11077;BME280;5591;42.626;23.380;2023-05-21T06:56:42;93971.59;;;22.82;74.17
11077;BME280;5591;42.626;23.380;2023-05-21T06:59:09;93966.78;;;22.74;72.88
11077;BME280;5591;42.626;23.380;2023-05-21T07:01:36;93960.06;;;22.21;75.30
11077;BME280;5591;42.626;23.380;2023-05-21T07:04:06;93971.34;;;22.68;73.83
11077;BME280;5591;42.626;23.380;2023-05-21T07:06:34;93960.66;;;22.73;71.82
11077;BME280;5591;42.626;23.380;2023-05-21T07:09:02;93954.22;;;22.79;69.52
11077;BME280;5591;42.626;23.380;2023-05-21T07:11:29;93959.56;;;22.89;67.97
11077;BME280;5591;42.626;23.380;2023-05-21T07:13:57;93961.97;;;22.86;69.71
11077;BME280;5591;42.626;23.380;2023-05-21T07:16:24;93955.81;;;22.60;67.44
11077;BME280;5591;42.626;23.380;2023-05-21T07:18:51;93943.75;;;22.38;63.83
11077;BME280;5591;42.626;23.380;2023-05-21T07:21:18;93958.69;;;23.28;63.40
11077;BME280;5591;42.626;23.380;2023-05-21T07:23:46;93960.31;;;23.09;66.26
11077;BME280;5591;42.626;23.380;2023-05-21T07:26:13;93958.97;;;23.12;64.99
11077;BME280;5591;42.626;23.380;2023-05-21T07:28:39;93959.22;;;23.35;64.15
11077;BME280;5591;42.626;23.380;2023-05-21T07:31:06;93947.22;;;23.13;64.66
11077;BME280;5591;42.626;23.380;2023-05-21T07:33:35;93958.31;;;23.65;62.99
11077;BME280;5591;42.626;23.380;2023-05-21T07:36:02;93963.88;;;23.88;63.93
11077;BME280;5591;42.626;23.380;2023-05-21T07:38:29;93932.47;;;23.89;61.41
11077;BME280;5591;42.626;23.380;2023-05-21T07:40:58;93951.09;;;24.57;55.77
11077;BME280;5591;42.626;23.380;2023-05-21T07:43:24;93964.03;;;24.45;58.98
11077;BME280;5591;42.626;23.380;2023-05-21T07:45:51;93931.59;;;24.03;57.29
11077;BME280;5591;42.626;23.380;2023-05-21T07:48:18;93967.16;;;23.65;57.88
11077;BME280;5591;42.626;23.380;2023-05-21T07:50:45;93950.41;;;23.25;58.91
11077;BME280;5591;42.626;23.380;2023-05-21T07:53:14;93967.41;;;24.27;58.71
11077;BME280;5591;42.626;23.380;2023-05-21T07:55:40;93952.50;;;24.06;59.85
11077;BME280;5591;42.626;23.380;2023-05-21T07:58:13;93956.06;;;23.92;61.03
11077;BME280;5591;42.626;23.380;2023-05-21T08:00:44;93962.53;;;23.81;59.00
11077;BME280;5591;42.626;23.380;2023-05-21T08:03:12;93936.56;;;23.71;56.09
11077;BME280;5591;42.626;23.380;2023-05-21T08:05:40;93956.91;;;24.31;54.31
11077;BME280;5591;42.626;23.380;2023-05-21T08:08:09;93949.34;;;24.76;53.19
11077;BME280;5591;42.626;23.380;2023-05-21T08:10:36;93948.88;;;25.50;51.10
11077;BME280;5591;42.626;23.380;2023-05-21T08:13:02;93954.44;;;25.35;50.31
11077;BME280;5591;42.626;23.380;2023-05-21T08:15:31;93944.88;;;25.94;48.47
11077;BME280;5591;42.626;23.380;2023-05-21T08:17:57;93946.72;;;25.98;45.89
11077;BME280;5591;42.626;23.380;2023-05-21T08:20:24;93953.22;;;25.51;45.50
11077;BME280;5591;42.626;23.380;2023-05-21T08:22:51;93950.94;;;24.77;45.55
11077;BME280;5591;42.626;23.380;2023-05-21T08:25:19;93948.66;;;24.22;45.92
11077;BME280;5591;42.626;23.380;2023-05-21T08:27:46;93937.59;;;24.67;45.83
11077;BME280;5591;42.626;23.380;2023-05-21T08:30:12;93952.63;;;24.30;46.05
11077;BME280;5591;42.626;23.380;2023-05-21T08:32:41;93958.16;;;24.05;46.77
11077;BME280;5591;42.626;23.380;2023-05-21T08:35:08;93960.19;;;23.59;48.43
11077;BME280;5591;42.626;23.380;2023-05-21T08:37:35;93952.94;;;23.70;48.24
11077;BME280;5591;42.626;23.380;2023-05-21T08:40:02;93961.66;;;24.44;47.20
11077;BME280;5591;42.626;23.380;2023-05-21T08:42:37;93947.72;;;25.37;47.09
11077;BME280;5591;42.626;23.380;2023-05-21T08:45:05;93955.91;;;25.22;47.06
11077;BME280;5591;42.626;23.380;2023-05-21T08:47:34;93934.09;;;25.52;45.65
11077;BME280;5591;42.626;23.380;2023-05-21T08:50:04;93955.63;;;25.24;45.74
11077;BME280;5591;42.626;23.380;2023-05-21T08:52:33;93947.72;;;25.09;46.31
11077;BME280;5591;42.626;23.380;2023-05-21T08:55:01;93944.03;;;25.00;47.02
11077;BME280;5591;42.626;23.380;2023-05-21T08:57:29;93954.63;;;24.86;47.55
11077;BME280;5591;42.626;23.380;2023-05-21T08:59:57;93946.78;;;25.93;45.72
11077;BME280;5591;42.626;23.380;2023-05-21T09:02:23;93943.47;;;26.20;45.88
11077;BME280;5591;42.626;23.380;2023-05-21T09:04:52;93942.75;;;26.33;45.50
11077;BME280;5591;42.626;23.380;2023-05-21T09:07:24;93944.16;;;25.88;45.72
11077;BME280;5591;42.626;23.380;2023-05-21T09:09:54;93937.91;;;26.11;45.47
11077;BME280;5591;42.626;23.380;2023-05-21T09:12:22;93954.97;;;25.83;45.67
11077;BME280;5591;42.626;23.380;2023-05-21T09:14:50;93953.34;;;26.06;45.65
11077;BME280;5591;42.626;23.380;2023-05-21T09:17:17;93950.06;;;26.46;44.38
11077;BME280;5591;42.626;23.380;2023-05-21T09:20:05;93963.44;;;25.72;41.67
11077;BME280;5591;42.626;23.380;2023-05-21T09:22:37;93932.25;;;25.94;40.54
11077;BME280;5591;42.626;23.380;2023-05-21T09:25:06;93952.69;;;25.95;41.00
11077;BME280;5591;42.626;23.380;2023-05-21T09:27:33;93949.84;;;25.87;40.97
11077;BME280;5591;42.626;23.380;2023-05-21T09:30:01;93951.97;;;26.08;39.72
11077;BME280;5591;42.626;23.380;2023-05-21T09:32:28;93957.34;;;26.08;40.22
11077;BME280;5591;42.626;23.380;2023-05-21T09:34:54;93947.81;;;26.16;39.38
11077;BME280;5591;42.626;23.380;2023-05-21T09:37:21;93950.28;;;26.12;39.42
11077;BME280;5591;42.626;23.380;2023-05-21T09:39:50;93942.03;;;25.85;40.42
11077;BME280;5591;42.626;23.380;2023-05-21T09:42:19;93951.22;;;26.21;39.67
11077;BME280;5591;42.626;23.380;2023-05-21T09:44:46;93945.84;;;26.77;39.05
11077;BME280;5591;42.626;23.380;2023-05-21T09:47:18;93951.53;;;26.38;38.88
11077;BME280;5591;42.626;23.380;2023-05-21T09:49:45;93952.22;;;25.88;39.38
11077;BME280;5591;42.626;23.380;2023-05-21T09:52:12;93933.84;;;26.32;39.09
11077;BME280;5591;42.626;23.380;2023-05-21T09:54:39;93949.56;;;26.07;38.17
11077;BME280;5591;42.626;23.380;2023-05-21T09:57:07;93946.72;;;26.17;38.23
11077;BME280;5591;42.626;23.380;2023-05-21T09:59:37;93928.13;;;25.78;38.08
11077;BME280;5591;42.626;23.380;2023-05-21T10:02:14;93901.66;;;26.09;38.64
11077;BME280;5591;42.626;23.380;2023-05-21T10:04:43;93931.81;;;26.61;38.71
11077;BME280;5591;42.626;23.380;2023-05-21T10:07:13;93919.63;;;26.50;38.25
11077;BME280;5591;42.626;23.380;2023-05-21T10:09:43;93933.19;;;26.59;37.41
11077;BME280;5591;42.626;23.380;2023-05-21T10:12:15;93936.09;;;25.88;38.46
11077;BME280;5591;42.626;23.380;2023-05-21T10:14:45;93933.50;;;25.78;37.58
11077;BME280;5591;42.626;23.380;2023-05-21T10:17:17;93936.69;;;25.80;38.07
11077;BME280;5591;42.626;23.380;2023-05-21T10:19:45;93900.44;;;25.78;37.65
11077;BME280;5591;42.626;23.380;2023-05-21T10:22:13;93931.22;;;26.46;37.71
11077;BME280;5591;42.626;23.380;2023-05-21T10:24:42;93929.41;;;26.78;36.74
11077;BME280;5591;42.626;23.380;2023-05-21T10:27:13;93828.78;;;26.05;37.33
11077;BME280;5591;42.626;23.380;2023-05-21T10:29:40;93956.88;;;26.94;37.18
11077;BME280;5591;42.626;23.380;2023-05-21T10:32:10;93903.81;;;26.44;37.37
11077;BME280;5591;42.626;23.380;2023-05-21T10:34:37;93923.53;;;26.58;38.03
11077;BME280;5591;42.626;23.380;2023-05-21T10:37:06;93923.38;;;26.31;38.43
11077;BME280;5591;42.626;23.380;2023-05-21T10:39:34;93917.81;;;25.85;39.39
11077;BME280;5591;42.626;23.380;2023-05-21T10:42:15;93915.88;;;25.91;39.46
11077;BME280;5591;42.626;23.380;2023-05-21T10:44:59;93910.66;;;26.55;38.85
11077;BME280;5591;42.626;23.380;2023-05-21T10:47:52;93913.69;;;26.48;39.05
11077;BME280;5591;42.626;23.380;2023-05-21T10:50:46;93910.44;;;26.51;38.64
11077;BME280;5591;42.626;23.380;2023-05-21T10:53:21;93908.94;;;25.85;40.06
11077;BME280;5591;42.626;23.380;2023-05-21T10:55:58;93912.41;;;26.09;39.88
11077;BME280;5591;42.626;23.380;2023-05-21T10:58:45;93905.78;;;26.20;40.10
11077;BME280;5591;42.626;23.380;2023-05-21T11:01:17;93791.69;;;25.05;41.26
11077;BME280;5591;42.626;23.380;2023-05-21T11:03:45;93901.44;;;25.40;41.94
11077;BME280;5591;42.626;23.380;2023-05-21T11:06:21;93911.31;;;24.93;42.71
11077;BME280;5591;42.626;23.380;2023-05-21T11:08:49;93902.94;;;24.71;42.82
11077;BME280;5591;42.626;23.380;2023-05-21T11:11:39;93850.84;;;24.72;42.54
11077;BME280;5591;42.626;23.380;2023-05-21T11:14:27;93905.13;;;25.44;42.72
11077;BME280;5591;42.626;23.380;2023-05-21T11:16:57;93897.78;;;26.84;40.59
11077;BME280;5591;42.626;23.380;2023-05-21T11:19:33;93898.47;;;27.62;39.21
11077;BME280;5591;42.626;23.380;2023-05-21T11:22:00;93888.31;;;28.57;37.48
11077;BME280;5591;42.626;23.380;2023-05-21T11:24:31;93887.72;;;28.90;37.06
11077;BME280;5591;42.626;23.380;2023-05-21T11:26:59;93852.16;;;28.09;37.33
11077;BME280;5591;42.626;23.380;2023-05-21T11:29:35;93886.91;;;27.75;37.43
11077;BME280;5591;42.626;23.380;2023-05-21T11:32:07;93894.91;;;26.94;38.71
11077;BME280;5591;42.626;23.380;2023-05-21T11:34:39;93887.53;;;26.54;39.47
11077;BME280;5591;42.626;23.380;2023-05-21T11:37:22;93888.63;;;26.66;40.03
11077;BME280;5591;42.626;23.380;2023-05-21T11:39:52;93886.25;;;26.65;39.61
11077;BME280;5591;42.626;23.380;2023-05-21T11:42:30;93887.88;;;26.29;40.33
11077;BME280;5591;42.626;23.380;2023-05-21T11:44:57;93891.94;;;26.08;40.66
11077;BME280;5591;42.626;23.380;2023-05-21T11:47:26;93880.16;;;25.85;41.58
11077;BME280;5591;42.626;23.380;2023-05-21T11:49:54;93873.66;;;25.26;42.84
11077;BME280;5591;42.626;23.380;2023-05-21T11:52:22;93882.31;;;25.18;43.32
11077;BME280;5591;42.626;23.380;2023-05-21T11:54:51;93882.03;;;24.68;44.09
11077;BME280;5591;42.626;23.380;2023-05-21T11:57:20;93882.06;;;24.63;44.25
11077;BME280;5591;42.626;23.380;2023-05-21T11:59:48;93876.75;;;24.86;44.09
11077;BME280;5591;42.626;23.380;2023-05-21T12:02:17;93874.91;;;24.48;44.55
11077;BME280;5591;42.626;23.380;2023-05-21T12:04:46;93883.00;;;24.10;45.54
11077;BME280;5591;42.626;23.380;2023-05-21T12:07:15;93885.28;;;23.88;45.68
11077;BME280;5591;42.626;23.380;2023-05-21T12:09:43;93858.59;;;24.11;45.89
11077;BME280;5591;42.626;23.380;2023-05-21T12:12:11;93818.94;;;24.08;45.42
11077;BME280;5591;42.626;23.380;2023-05-21T12:14:38;93902.78;;;24.57;45.26
11077;BME280;5591;42.626;23.380;2023-05-21T12:17:05;93864.06;;;24.30;45.09
11077;BME280;5591;42.626;23.380;2023-05-21T12:19:36;93804.06;;;23.82;45.37
11077;BME280;5591;42.626;23.380;2023-05-21T12:22:05;93869.41;;;24.35;45.91
11077;BME280;5591;42.626;23.380;2023-05-21T12:24:33;93769.22;;;23.82;45.47
11077;BME280;5591;42.626;23.380;2023-05-21T12:27:03;93869.28;;;24.55;45.59
11077;BME280;5591;42.626;23.380;2023-05-21T12:29:34;93870.81;;;24.61;46.06
11077;BME280;5591;42.626;23.380;2023-05-21T12:32:03;93862.16;;;24.35;47.00
11077;BME280;5591;42.626;23.380;2023-05-21T12:34:38;93872.13;;;23.96;48.49
11077;BME280;5591;42.626;23.380;2023-05-21T12:37:07;93871.81;;;24.03;48.77
11077;BME280;5591;42.626;23.380;2023-05-21T12:39:41;93869.50;;;23.86;50.33
11077;BME280;5591;42.626;23.380;2023-05-21T12:42:09;93861.44;;;23.81;51.33
11077;BME280;5591;42.626;23.380;2023-05-21T12:44:37;93865.69;;;23.92;51.08
11077;BME280;5591;42.626;23.380;2023-05-21T12:47:04;93759.47;;;23.58;50.95
11077;BME280;5591;42.626;23.380;2023-05-21T12:49:36;93859.22;;;23.98;51.07
11077;BME280;5591;42.626;23.380;2023-05-21T12:52:04;93859.97;;;24.42;50.53
11077;BME280;5591;42.626;23.380;2023-05-21T12:54:34;93858.59;;;24.45;51.38
11077;BME280;5591;42.626;23.380;2023-05-21T12:57:08;93852.09;;;24.51;52.24
11077;BME280;5591;42.626;23.380;2023-05-21T12:59:46;93764.69;;;24.45;51.56
11077;BME280;5591;42.626;23.380;2023-05-21T13:02:24;93851.66;;;25.19;51.57